This is the latest recevied weather packets stored in our database for station/object KI5NXU. If no packets are shown the sender has not sent any weather packets the latest 10 day(s).
| Time | Temp. | Humidity | Pressure | Rain* | Wind** | Luminosity | Snow |
|---|---|---|---|---|---|---|---|
| 1777795538 | 16.67° C | 67% | 1018.8 hPa | 0 mm | - | 0 W/m² | - |
| 1777795235 | 16.67° C | 67% | 1018.9 hPa | 0 mm | - | 0 W/m² | - |
| 1777794931 | 16.67° C | 65% | 1018.8 hPa | 0 mm | - | 0 W/m² | - |
| 1777794628 | 17.22° C | 64% | 1018.9 hPa | 0 mm | - | 0 W/m² | - |
| 1777794323 | 16.67° C | 64% | 1018.8 hPa | 0 mm | - | 0 W/m² | - |
| 1777794019 | 16.67° C | 64% | 1018.7 hPa | 0 mm | - | 0 W/m² | - |
| 1777793716 | 16.67° C | 66% | 1018.7 hPa | 0 mm | - | 0 W/m² | - |
| 1777793415 | 16.67° C | 66% | 1019 hPa | 0 mm | - | 0 W/m² | - |
| 1777793112 | 16.67° C | 65% | 1018.9 hPa | 0 mm | - | 0 W/m² | - |
| 1777792809 | 17.22° C | 65% | 1019 hPa | 0 mm | - | 0 W/m² | - |
| 1777792506 | 17.22° C | 65% | 1018.9 hPa | 0 mm | - | 0 W/m² | - |
| 1777792201 | 17.22° C | 66% | 1019.1 hPa | 0 mm | - | 0 W/m² | - |
| 1777791899 | 16.67° C | 66% | 1019.3 hPa | 0 mm | - | 0 W/m² | - |
| 1777791597 | 16.67° C | 68% | 1018.9 hPa | 0 mm | - | 0 W/m² | - |
| 1777791294 | 16.11° C | 68% | 1019.2 hPa | 0 mm | - | 0 W/m² | - |
| 1777790991 | 15.56° C | 70% | 1019 hPa | 0 mm | - | 0 W/m² | - |
| 1777790386 | 15.56° C | 70% | 1019.2 hPa | 0 mm | - | 0 W/m² | - |
| 1777790083 | 17.22° C | 66% | 1019.2 hPa | 0 mm | - | 0 W/m² | - |
| 1777789782 | 17.22° C | 64% | 1019.1 hPa | 0 mm | - | 0 W/m² | - |
| 1777789480 | 16.67° C | 66% | 1019.1 hPa | 0 mm | - | 0 W/m² | - |
| 1777789178 | 16.11° C | 68% | 1019.5 hPa | 0 mm | - | 0 W/m² | - |
| 1777788874 | 16.67° C | 68% | 1019.2 hPa | 0 mm | - | 0 W/m² | - |
| 1777788570 | 17.22° C | 64% | 1019.3 hPa | 0 mm | - | 0 W/m² | - |
| 1777788270 | 16.67° C | 67% | 1018.9 hPa | 0 mm | - | 0 W/m² | - |
| 1777787966 | 17.22° C | 65% | 1019.2 hPa | 0 mm | - | 0 W/m² | - |
* Rain latest hour (hover to see other rain measurements)
** Current wind speed in m/s (hover to see current wind gust speed)